sensor_id;sensor_type;location;lat;lon;timestamp;temperature;humidity
7708;DHT22;3896;48.758;8.888;2022-08-03T00:02:25;19.80;72.60
7708;DHT22;3896;48.758;8.888;2022-08-03T00:04:51;19.70;72.80
7708;DHT22;3896;48.758;8.888;2022-08-03T00:07:17;19.70;73.10
7708;DHT22;3896;48.758;8.888;2022-08-03T00:09:44;19.60;73.40
7708;DHT22;3896;48.758;8.888;2022-08-03T00:12:10;19.60;73.70
7708;DHT22;3896;48.758;8.888;2022-08-03T00:14:36;19.60;74.00
7708;DHT22;3896;48.758;8.888;2022-08-03T00:17:02;19.50;74.20
7708;DHT22;3896;48.758;8.888;2022-08-03T00:19:28;19.40;74.30
7708;DHT22;3896;48.758;8.888;2022-08-03T00:21:53;19.40;74.70
7708;DHT22;3896;48.758;8.888;2022-08-03T00:24:19;19.40;75.10
7708;DHT22;3896;48.758;8.888;2022-08-03T00:26:45;19.30;75.30
7708;DHT22;3896;48.758;8.888;2022-08-03T00:29:10;19.30;75.80
7708;DHT22;3896;48.758;8.888;2022-08-03T00:31:36;19.20;76.20
7708;DHT22;3896;48.758;8.888;2022-08-03T00:34:02;19.20;76.50
7708;DHT22;3896;48.758;8.888;2022-08-03T00:36:27;19.20;76.90
7708;DHT22;3896;48.758;8.888;2022-08-03T00:38:53;19.10;77.10
7708;DHT22;3896;48.758;8.888;2022-08-03T00:41:19;19.10;77.50
7708;DHT22;3896;48.758;8.888;2022-08-03T00:43:45;19.00;77.80
7708;DHT22;3896;48.758;8.888;2022-08-03T00:46:12;19.00;78.10
7708;DHT22;3896;48.758;8.888;2022-08-03T00:48:38;19.00;78.50
7708;DHT22;3896;48.758;8.888;2022-08-03T00:51:04;18.90;78.90
7708;DHT22;3896;48.758;8.888;2022-08-03T00:53:30;18.80;79.00
7708;DHT22;3896;48.758;8.888;2022-08-03T00:55:56;18.80;79.30
7708;DHT22;3896;48.758;8.888;2022-08-03T00:58:22;18.80;79.80
7708;DHT22;3896;48.758;8.888;2022-08-03T01:00:48;18.80;80.30
7708;DHT22;3896;48.758;8.888;2022-08-03T01:03:14;18.70;80.50
7708;DHT22;3896;48.758;8.888;2022-08-03T01:11:17;18.60;81.60
7708;DHT22;3896;48.758;8.888;2022-08-03T01:17:01;18.40;80.90
7708;DHT22;3896;48.758;8.888;2022-08-03T01:30:22;18.30;84.50
7708;DHT22;3896;48.758;8.888;2022-08-03T01:32:59;18.30;85.00
7708;DHT22;3896;48.758;8.888;2022-08-03T01:35:59;18.20;84.80
7708;DHT22;3896;48.758;8.888;2022-08-03T01:38:31;18.10;84.30
7708;DHT22;3896;48.758;8.888;2022-08-03T01:41:11;18.10;86.00
7708;DHT22;3896;48.758;8.888;2022-08-03T01:43:40;18.10;85.90
7708;DHT22;3896;48.758;8.888;2022-08-03T01:46:07;18.10;87.00
7708;DHT22;3896;48.758;8.888;2022-08-03T01:48:36;18.00;87.40
7708;DHT22;3896;48.758;8.888;2022-08-03T01:51:02;18.00;87.80
7708;DHT22;3896;48.758;8.888;2022-08-03T01:53:30;18.00;88.50
7708;DHT22;3896;48.758;8.888;2022-08-03T01:55:58;18.00;88.90
7708;DHT22;3896;48.758;8.888;2022-08-03T01:58:24;18.00;89.10
7708;DHT22;3896;48.758;8.888;2022-08-03T02:00:51;17.90;89.40
7708;DHT22;3896;48.758;8.888;2022-08-03T02:03:18;17.90;89.60
7708;DHT22;3896;48.758;8.888;2022-08-03T02:05:46;17.90;89.90
7708;DHT22;3896;48.758;8.888;2022-08-03T02:08:12;17.90;90.20
7708;DHT22;3896;48.758;8.888;2022-08-03T02:10:41;17.80;90.30
7708;DHT22;3896;48.758;8.888;2022-08-03T02:13:08;17.80;90.30
7708;DHT22;3896;48.758;8.888;2022-08-03T02:15:36;17.80;90.60
7708;DHT22;3896;48.758;8.888;2022-08-03T02:18:05;17.80;90.60
7708;DHT22;3896;48.758;8.888;2022-08-03T02:20:32;17.80;90.80
7708;DHT22;3896;48.758;8.888;2022-08-03T02:23:00;17.70;90.90
7708;DHT22;3896;48.758;8.888;2022-08-03T02:25:27;17.70;91.00
7708;DHT22;3896;48.758;8.888;2022-08-03T02:28:05;17.70;91.20
7708;DHT22;3896;48.758;8.888;2022-08-03T02:30:36;17.60;91.10
7708;DHT22;3896;48.758;8.888;2022-08-03T02:33:09;17.60;91.30
7708;DHT22;3896;48.758;8.888;2022-08-03T02:35:36;17.60;91.60
7708;DHT22;3896;48.758;8.888;2022-08-03T02:38:04;17.50;91.80
7708;DHT22;3896;48.758;8.888;2022-08-03T02:40:32;17.50;91.80
7708;DHT22;3896;48.758;8.888;2022-08-03T02:43:01;17.50;92.00
7708;DHT22;3896;48.758;8.888;2022-08-03T02:45:28;17.50;92.10
7708;DHT22;3896;48.758;8.888;2022-08-03T02:47:59;17.50;92.30
7708;DHT22;3896;48.758;8.888;2022-08-03T02:50:28;17.40;92.30
7708;DHT22;3896;48.758;8.888;2022-08-03T02:52:56;17.40;92.60
7708;DHT22;3896;48.758;8.888;2022-08-03T02:55:24;17.40;92.90
7708;DHT22;3896;48.758;8.888;2022-08-03T02:57:51;17.30;93.00
7708;DHT22;3896;48.758;8.888;2022-08-03T03:00:18;17.30;93.10
7708;DHT22;3896;48.758;8.888;2022-08-03T03:02:44;17.30;93.20
7708;DHT22;3896;48.758;8.888;2022-08-03T03:05:11;17.30;93.40
7708;DHT22;3896;48.758;8.888;2022-08-03T03:07:38;17.30;93.50
7708;DHT22;3896;48.758;8.888;2022-08-03T03:10:05;17.20;93.60
7708;DHT22;3896;48.758;8.888;2022-08-03T03:12:32;17.20;93.80
7708;DHT22;3896;48.758;8.888;2022-08-03T03:15:00;17.20;94.00
7708;DHT22;3896;48.758;8.888;2022-08-03T03:17:25;17.20;94.10
7708;DHT22;3896;48.758;8.888;2022-08-03T03:19:52;17.20;94.20
7708;DHT22;3896;48.758;8.888;2022-08-03T03:22:19;17.10;94.30
7708;DHT22;3896;48.758;8.888;2022-08-03T03:24:46;17.10;94.50
7708;DHT22;3896;48.758;8.888;2022-08-03T03:27:15;17.10;94.70
7708;DHT22;3896;48.758;8.888;2022-08-03T03:29:42;17.00;94.70
7708;DHT22;3896;48.758;8.888;2022-08-03T03:32:08;17.00;94.80
7708;DHT22;3896;48.758;8.888;2022-08-03T03:34:35;17.00;94.80
7708;DHT22;3896;48.758;8.888;2022-08-03T03:37:01;17.00;94.90
7708;DHT22;3896;48.758;8.888;2022-08-03T03:39:27;17.00;95.00
7708;DHT22;3896;48.758;8.888;2022-08-03T03:41:53;16.90;95.00
7708;DHT22;3896;48.758;8.888;2022-08-03T03:44:19;16.90;95.20
7708;DHT22;3896;48.758;8.888;2022-08-03T03:46:44;16.90;95.40
7708;DHT22;3896;48.758;8.888;2022-08-03T03:49:10;16.90;95.50
7708;DHT22;3896;48.758;8.888;2022-08-03T03:51:36;16.90;95.60
7708;DHT22;3896;48.758;8.888;2022-08-03T03:54:02;16.80;95.70
7708;DHT22;3896;48.758;8.888;2022-08-03T03:56:30;16.80;95.70
7708;DHT22;3896;48.758;8.888;2022-08-03T03:58:55;16.80;95.80
7708;DHT22;3896;48.758;8.888;2022-08-03T04:01:22;16.80;95.90
7708;DHT22;3896;48.758;8.888;2022-08-03T04:03:47;16.80;96.10
7708;DHT22;3896;48.758;8.888;2022-08-03T04:06:13;16.70;96.60
7708;DHT22;3896;48.758;8.888;2022-08-03T04:08:57;16.70;96.30
7708;DHT22;3896;48.758;8.888;2022-08-03T04:11:49;16.70;96.50
7708;DHT22;3896;48.758;8.888;2022-08-03T04:14:22;16.60;96.40
7708;DHT22;3896;48.758;8.888;2022-08-03T04:16:52;16.60;96.70
7708;DHT22;3896;48.758;8.888;2022-08-03T04:19:25;16.60;96.90
7708;DHT22;3896;48.758;8.888;2022-08-03T04:21:56;16.60;97.00
7708;DHT22;3896;48.758;8.888;2022-08-03T04:24:27;16.60;97.20
7708;DHT22;3896;48.758;8.888;2022-08-03T04:26:55;16.60;97.40
7708;DHT22;3896;48.758;8.888;2022-08-03T04:29:24;16.60;97.70
7708;DHT22;3896;48.758;8.888;2022-08-03T04:31:52;16.50;97.80
7708;DHT22;3896;48.758;8.888;2022-08-03T04:34:19;16.50;98.00
7708;DHT22;3896;48.758;8.888;2022-08-03T04:36:48;16.50;98.30
7708;DHT22;3896;48.758;8.888;2022-08-03T04:39:22;16.50;98.40
7708;DHT22;3896;48.758;8.888;2022-08-03T04:41:53;16.50;98.60
7708;DHT22;3896;48.758;8.888;2022-08-03T04:44:23;16.50;98.90
7708;DHT22;3896;48.758;8.888;2022-08-03T04:46:49;16.50;99.10
7708;DHT22;3896;48.758;8.888;2022-08-03T04:49:15;16.50;99.40
7708;DHT22;3896;48.758;8.888;2022-08-03T04:51:41;16.50;99.60
7708;DHT22;3896;48.758;8.888;2022-08-03T04:54:14;16.50;99.80
7708;DHT22;3896;48.758;8.888;2022-08-03T04:56:41;16.50;99.70
7708;DHT22;3896;48.758;8.888;2022-08-03T04:59:07;16.50;99.90
7708;DHT22;3896;48.758;8.888;2022-08-03T05:01:33;16.50;99.90
7708;DHT22;3896;48.758;8.888;2022-08-03T05:03:59;16.50;99.90
7708;DHT22;3896;48.758;8.888;2022-08-03T05:06:25;16.50;99.90
7708;DHT22;3896;48.758;8.888;2022-08-03T05:08:50;16.60;99.90
7708;DHT22;3896;48.758;8.888;2022-08-03T05:11:16;16.60;99.90
7708;DHT22;3896;48.758;8.888;2022-08-03T05:13:43;16.60;99.90
7708;DHT22;3896;48.758;8.888;2022-08-03T05:16:09;16.60;99.90
7708;DHT22;3896;48.758;8.888;2022-08-03T05:18:34;16.60;99.90
7708;DHT22;3896;48.758;8.888;2022-08-03T05:21:00;16.70;99.90
7708;DHT22;3896;48.758;8.888;2022-08-03T05:23:26;16.70;99.90
7708;DHT22;3896;48.758;8.888;2022-08-03T05:25:51;16.70;99.90
7708;DHT22;3896;48.758;8.888;2022-08-03T05:28:17;16.80;99.90
7708;DHT22;3896;48.758;8.888;2022-08-03T05:30:43;16.80;99.90
7708;DHT22;3896;48.758;8.888;2022-08-03T05:33:09;16.80;99.90
7708;DHT22;3896;48.758;8.888;2022-08-03T05:35:36;16.90;99.90
7708;DHT22;3896;48.758;8.888;2022-08-03T05:38:03;16.90;99.90
7708;DHT22;3896;48.758;8.888;2022-08-03T05:40:29;17.00;99.90
7708;DHT22;3896;48.758;8.888;2022-08-03T05:42:55;17.00;99.90
7708;DHT22;3896;48.758;8.888;2022-08-03T05:45:21;17.00;99.90
7708;DHT22;3896;48.758;8.888;2022-08-03T05:47:47;17.10;99.90
7708;DHT22;3896;48.758;8.888;2022-08-03T05:50:15;17.10;99.90
7708;DHT22;3896;48.758;8.888;2022-08-03T05:52:41;17.20;99.90
7708;DHT22;3896;48.758;8.888;2022-08-03T05:55:08;17.20;99.90
7708;DHT22;3896;48.758;8.888;2022-08-03T05:57:35;17.30;99.80
7708;DHT22;3896;48.758;8.888;2022-08-03T06:00:05;17.30;99.60
7708;DHT22;3896;48.758;8.888;2022-08-03T06:02:31;17.40;99.70
7708;DHT22;3896;48.758;8.888;2022-08-03T06:04:57;17.50;99.90
7708;DHT22;3896;48.758;8.888;2022-08-03T06:07:23;17.50;99.90
7708;DHT22;3896;48.758;8.888;2022-08-03T06:09:48;17.60;99.90
7708;DHT22;3896;48.758;8.888;2022-08-03T06:12:14;17.70;99.90
7708;DHT22;3896;48.758;8.888;2022-08-03T06:14:40;17.70;99.90
7708;DHT22;3896;48.758;8.888;2022-08-03T06:17:05;17.80;99.90
7708;DHT22;3896;48.758;8.888;2022-08-03T06:19:31;17.90;99.90
7708;DHT22;3896;48.758;8.888;2022-08-03T06:21:56;18.00;99.90
7708;DHT22;3896;48.758;8.888;2022-08-03T06:24:22;18.00;99.90
7708;DHT22;3896;48.758;8.888;2022-08-03T06:26:48;18.10;99.90
7708;DHT22;3896;48.758;8.888;2022-08-03T06:29:13;18.20;99.90
7708;DHT22;3896;48.758;8.888;2022-08-03T06:31:39;18.30;99.90
7708;DHT22;3896;48.758;8.888;2022-08-03T06:34:05;18.30;99.90
7708;DHT22;3896;48.758;8.888;2022-08-03T06:36:30;18.40;99.90
7708;DHT22;3896;48.758;8.888;2022-08-03T06:38:57;18.50;99.90
7708;DHT22;3896;48.758;8.888;2022-08-03T06:41:24;18.60;99.90
7708;DHT22;3896;48.758;8.888;2022-08-03T06:43:49;18.70;99.90
7708;DHT22;3896;48.758;8.888;2022-08-03T06:46:15;18.80;99.90
7708;DHT22;3896;48.758;8.888;2022-08-03T06:48:41;18.90;99.90
7708;DHT22;3896;48.758;8.888;2022-08-03T06:51:06;18.90;99.90
7708;DHT22;3896;48.758;8.888;2022-08-03T06:53:32;19.10;99.90
7708;DHT22;3896;48.758;8.888;2022-08-03T06:55:58;19.10;99.90
7708;DHT22;3896;48.758;8.888;2022-08-03T06:58:24;19.30;99.90
7708;DHT22;3896;48.758;8.888;2022-08-03T07:00:49;19.40;99.90
7708;DHT22;3896;48.758;8.888;2022-08-03T07:03:15;19.50;99.90
7708;DHT22;3896;48.758;8.888;2022-08-03T07:05:41;19.60;99.30
7708;DHT22;3896;48.758;8.888;2022-08-03T07:08:07;19.70;98.90
7708;DHT22;3896;48.758;8.888;2022-08-03T07:10:32;19.80;98.70
7708;DHT22;3896;48.758;8.888;2022-08-03T07:12:58;20.00;98.40
7708;DHT22;3896;48.758;8.888;2022-08-03T07:15:24;20.10;97.90
7708;DHT22;3896;48.758;8.888;2022-08-03T07:17:50;20.20;97.40
7708;DHT22;3896;48.758;8.888;2022-08-03T07:20:15;20.40;96.70
7708;DHT22;3896;48.758;8.888;2022-08-03T07:22:43;20.50;96.00
7708;DHT22;3896;48.758;8.888;2022-08-03T07:25:08;20.70;95.90
7708;DHT22;3896;48.758;8.888;2022-08-03T07:27:34;20.80;95.00
7708;DHT22;3896;48.758;8.888;2022-08-03T07:30:00;21.00;94.30
7708;DHT22;3896;48.758;8.888;2022-08-03T07:32:26;21.10;94.40
7708;DHT22;3896;48.758;8.888;2022-08-03T07:34:55;21.20;94.50
7708;DHT22;3896;48.758;8.888;2022-08-03T07:37:21;21.40;94.20
7708;DHT22;3896;48.758;8.888;2022-08-03T07:39:46;21.50;93.60
7708;DHT22;3896;48.758;8.888;2022-08-03T07:42:12;21.70;92.90
7708;DHT22;3896;48.758;8.888;2022-08-03T07:44:38;21.80;92.70
7708;DHT22;3896;48.758;8.888;2022-08-03T07:47:03;22.00;91.80
7708;DHT22;3896;48.758;8.888;2022-08-03T07:49:29;22.20;91.40
7708;DHT22;3896;48.758;8.888;2022-08-03T07:51:55;22.30;90.70
7708;DHT22;3896;48.758;8.888;2022-08-03T07:54:39;22.50;90.30
7708;DHT22;3896;48.758;8.888;2022-08-03T07:57:05;22.70;88.60
7708;DHT22;3896;48.758;8.888;2022-08-03T07:59:30;22.80;87.10
7708;DHT22;3896;48.758;8.888;2022-08-03T08:01:56;23.00;86.00
7708;DHT22;3896;48.758;8.888;2022-08-03T08:04:22;23.10;85.30
7708;DHT22;3896;48.758;8.888;2022-08-03T08:06:48;23.30;85.10
7708;DHT22;3896;48.758;8.888;2022-08-03T08:09:14;23.50;84.70
7708;DHT22;3896;48.758;8.888;2022-08-03T08:11:39;23.60;85.00
7708;DHT22;3896;48.758;8.888;2022-08-03T08:14:05;23.80;83.40
7708;DHT22;3896;48.758;8.888;2022-08-03T08:16:31;24.00;82.20
7708;DHT22;3896;48.758;8.888;2022-08-03T08:18:57;24.10;80.80
7708;DHT22;3896;48.758;8.888;2022-08-03T08:21:23;24.30;79.00
7708;DHT22;3896;48.758;8.888;2022-08-03T08:23:48;24.50;78.30
7708;DHT22;3896;48.758;8.888;2022-08-03T08:26:14;24.60;76.80
7708;DHT22;3896;48.758;8.888;2022-08-03T08:28:40;24.80;76.50
7708;DHT22;3896;48.758;8.888;2022-08-03T08:31:06;25.00;75.80
7708;DHT22;3896;48.758;8.888;2022-08-03T08:33:32;25.10;75.00
7708;DHT22;3896;48.758;8.888;2022-08-03T08:35:59;25.30;73.50
7708;DHT22;3896;48.758;8.888;2022-08-03T08:38:25;25.40;71.70
7708;DHT22;3896;48.758;8.888;2022-08-03T08:40:53;25.60;71.00
7708;DHT22;3896;48.758;8.888;2022-08-03T08:43:19;25.80;71.70
7708;DHT22;3896;48.758;8.888;2022-08-03T08:45:49;25.90;70.10
7708;DHT22;3896;48.758;8.888;2022-08-03T08:48:22;26.10;66.90
7708;DHT22;3896;48.758;8.888;2022-08-03T08:50:52;26.30;65.30
7708;DHT22;3896;48.758;8.888;2022-08-03T08:53:19;26.50;64.40
7708;DHT22;3896;48.758;8.888;2022-08-03T08:55:46;26.70;63.30
7708;DHT22;3896;48.758;8.888;2022-08-03T08:58:13;26.80;62.20
7708;DHT22;3896;48.758;8.888;2022-08-03T09:00:41;27.00;60.40
7708;DHT22;3896;48.758;8.888;2022-08-03T09:03:09;27.10;58.80
7708;DHT22;3896;48.758;8.888;2022-08-03T09:05:35;27.30;57.20
7708;DHT22;3896;48.758;8.888;2022-08-03T09:08:01;27.40;56.60
7708;DHT22;3896;48.758;8.888;2022-08-03T09:10:29;27.70;56.30
7708;DHT22;3896;48.758;8.888;2022-08-03T09:12:55;27.80;55.70
7708;DHT22;3896;48.758;8.888;2022-08-03T09:15:29;27.90;55.30
7708;DHT22;3896;48.758;8.888;2022-08-03T09:18:02;28.00;55.50
7708;DHT22;3896;48.758;8.888;2022-08-03T09:20:33;28.20;55.30
7708;DHT22;3896;48.758;8.888;2022-08-03T09:23:06;28.40;54.30
7708;DHT22;3896;48.758;8.888;2022-08-03T09:28:08;28.80;53.20
7708;DHT22;3896;48.758;8.888;2022-08-03T09:30:35;28.90;52.80
7708;DHT22;3896;48.758;8.888;2022-08-03T09:33:02;29.20;52.50
7708;DHT22;3896;48.758;8.888;2022-08-03T09:35:28;29.30;51.80
7708;DHT22;3896;48.758;8.888;2022-08-03T09:38:15;29.40;51.80
7708;DHT22;3896;48.758;8.888;2022-08-03T09:40:42;29.60;52.00
7708;DHT22;3896;48.758;8.888;2022-08-03T09:43:09;29.80;50.50
7708;DHT22;3896;48.758;8.888;2022-08-03T09:45:39;30.00;50.30
7708;DHT22;3896;48.758;8.888;2022-08-03T09:48:24;30.10;49.30
7708;DHT22;3896;48.758;8.888;2022-08-03T09:53:20;30.50;50.00
7708;DHT22;3896;48.758;8.888;2022-08-03T09:58:20;30.80;49.10
7708;DHT22;3896;48.758;8.888;2022-08-03T10:01:02;31.00;48.70
7708;DHT22;3896;48.758;8.888;2022-08-03T10:03:30;31.10;47.80
7708;DHT22;3896;48.758;8.888;2022-08-03T10:05:57;31.30;47.20
7708;DHT22;3896;48.758;8.888;2022-08-03T10:08:23;31.40;46.50
7708;DHT22;3896;48.758;8.888;2022-08-03T10:10:50;31.50;46.00
7708;DHT22;3896;48.758;8.888;2022-08-03T10:13:21;31.70;45.70
7708;DHT22;3896;48.758;8.888;2022-08-03T10:15:47;31.80;45.90
7708;DHT22;3896;48.758;8.888;2022-08-03T10:18:13;31.90;45.50
7708;DHT22;3896;48.758;8.888;2022-08-03T10:20:44;32.00;45.30
7708;DHT22;3896;48.758;8.888;2022-08-03T10:23:10;32.20;44.60
7708;DHT22;3896;48.758;8.888;2022-08-03T10:25:37;32.30;44.90
7708;DHT22;3896;48.758;8.888;2022-08-03T10:28:03;32.40;45.10
7708;DHT22;3896;48.758;8.888;2022-08-03T10:30:31;32.60;44.50
7708;DHT22;3896;48.758;8.888;2022-08-03T10:33:16;32.70;44.60
7708;DHT22;3896;48.758;8.888;2022-08-03T10:35:43;32.80;44.10
7708;DHT22;3896;48.758;8.888;2022-08-03T10:38:17;33.00;43.80
7708;DHT22;3896;48.758;8.888;2022-08-03T10:40:43;33.10;42.80
7708;DHT22;3896;48.758;8.888;2022-08-03T10:43:11;33.20;42.80
7708;DHT22;3896;48.758;8.888;2022-08-03T10:45:44;33.40;42.80
7708;DHT22;3896;48.758;8.888;2022-08-03T10:48:10;33.60;42.60
7708;DHT22;3896;48.758;8.888;2022-08-03T10:50:37;33.70;42.10
7708;DHT22;3896;48.758;8.888;2022-08-03T10:53:05;33.80;42.10
7708;DHT22;3896;48.758;8.888;2022-08-03T10:55:35;33.90;41.60
7708;DHT22;3896;48.758;8.888;2022-08-03T11:01:06;34.10;41.70
7708;DHT22;3896;48.758;8.888;2022-08-03T11:03:32;34.30;41.40
7708;DHT22;3896;48.758;8.888;2022-08-03T11:06:15;34.30;41.30
7708;DHT22;3896;48.758;8.888;2022-08-03T11:08:48;34.40;41.50
7708;DHT22;3896;48.758;8.888;2022-08-03T11:14:01;34.70;40.60
7708;DHT22;3896;48.758;8.888;2022-08-03T11:16:28;34.70;40.30
7708;DHT22;3896;48.758;8.888;2022-08-03T11:18:59;34.90;40.50
7708;DHT22;3896;48.758;8.888;2022-08-03T11:27:15;35.30;40.10
7708;DHT22;3896;48.758;8.888;2022-08-03T11:30:11;35.40;39.50
7708;DHT22;3896;48.758;8.888;2022-08-03T11:46:11;36.30;36.80
7708;DHT22;3896;48.758;8.888;2022-08-03T11:48:47;36.40;36.30
7708;DHT22;3896;48.758;8.888;2022-08-03T11:51:24;36.60;36.90
7708;DHT22;3896;48.758;8.888;2022-08-03T11:53:55;36.60;36.80
7708;DHT22;3896;48.758;8.888;2022-08-03T11:56:21;36.80;36.50
7708;DHT22;3896;48.758;8.888;2022-08-03T11:58:57;36.90;35.90
7708;DHT22;3896;48.758;8.888;2022-08-03T12:01:23;36.90;35.40
7708;DHT22;3896;48.758;8.888;2022-08-03T12:03:50;37.00;35.20
7708;DHT22;3896;48.758;8.888;2022-08-03T12:06:17;37.10;35.00
7708;DHT22;3896;48.758;8.888;2022-08-03T12:08:44;37.30;35.00
7708;DHT22;3896;48.758;8.888;2022-08-03T12:11:13;37.40;34.20
7708;DHT22;3896;48.758;8.888;2022-08-03T12:13:46;37.50;33.80
7708;DHT22;3896;48.758;8.888;2022-08-03T12:16:19;37.60;33.70
7708;DHT22;3896;48.758;8.888;2022-08-03T12:19:14;37.70;33.80
7708;DHT22;3896;48.758;8.888;2022-08-03T12:21:49;37.80;34.20
7708;DHT22;3896;48.758;8.888;2022-08-03T12:24:15;37.90;34.50
7708;DHT22;3896;48.758;8.888;2022-08-03T12:26:46;38.10;34.70
7708;DHT22;3896;48.758;8.888;2022-08-03T12:29:20;38.20;33.90
7708;DHT22;3896;48.758;8.888;2022-08-03T12:31:46;38.30;34.30
7708;DHT22;3896;48.758;8.888;2022-08-03T12:34:12;38.50;32.90
7708;DHT22;3896;48.758;8.888;2022-08-03T12:36:52;38.70;32.30
7708;DHT22;3896;48.758;8.888;2022-08-03T12:39:24;38.80;32.10
7708;DHT22;3896;48.758;8.888;2022-08-03T12:41:54;38.90;31.90
7708;DHT22;3896;48.758;8.888;2022-08-03T12:44:31;39.00;31.40
7708;DHT22;3896;48.758;8.888;2022-08-03T12:46:59;39.10;31.40
7708;DHT22;3896;48.758;8.888;2022-08-03T12:49:25;39.20;30.80
7708;DHT22;3896;48.758;8.888;2022-08-03T12:54:23;39.40;31.00
7708;DHT22;3896;48.758;8.888;2022-08-03T12:57:05;39.50;30.60
7708;DHT22;3896;48.758;8.888;2022-08-03T12:59:34;39.60;30.80
7708;DHT22;3896;48.758;8.888;2022-08-03T13:02:00;39.80;30.50
7708;DHT22;3896;48.758;8.888;2022-08-03T13:04:27;39.90;30.70
7708;DHT22;3896;48.758;8.888;2022-08-03T13:07:19;40.00;30.00
7708;DHT22;3896;48.758;8.888;2022-08-03T13:09:54;40.10;30.50
7708;DHT22;3896;48.758;8.888;2022-08-03T13:12:25;40.20;30.10
7708;DHT22;3896;48.758;8.888;2022-08-03T13:14:56;40.40;30.00
7708;DHT22;3896;48.758;8.888;2022-08-03T13:17:22;40.50;29.80
7708;DHT22;3896;48.758;8.888;2022-08-03T13:19:48;40.70;29.70
7708;DHT22;3896;48.758;8.888;2022-08-03T13:22:25;40.80;29.90
7708;DHT22;3896;48.758;8.888;2022-08-03T13:24:54;40.80;29.60
7708;DHT22;3896;48.758;8.888;2022-08-03T13:27:23;41.00;29.30
7708;DHT22;3896;48.758;8.888;2022-08-03T13:29:49;41.10;29.20
7708;DHT22;3896;48.758;8.888;2022-08-03T13:32:15;41.20;30.00
7708;DHT22;3896;48.758;8.888;2022-08-03T13:34:41;41.30;29.70
7708;DHT22;3896;48.758;8.888;2022-08-03T13:37:06;41.40;29.20
7708;DHT22;3896;48.758;8.888;2022-08-03T13:39:32;41.50;29.20
7708;DHT22;3896;48.758;8.888;2022-08-03T13:41:58;41.60;29.40
7708;DHT22;3896;48.758;8.888;2022-08-03T13:44:24;41.80;29.50
7708;DHT22;3896;48.758;8.888;2022-08-03T13:46:49;41.80;28.70
7708;DHT22;3896;48.758;8.888;2022-08-03T13:49:15;42.00;28.50
7708;DHT22;3896;48.758;8.888;2022-08-03T13:51:41;42.10;28.20
7708;DHT22;3896;48.758;8.888;2022-08-03T13:54:07;42.20;28.40
7708;DHT22;3896;48.758;8.888;2022-08-03T13:56:33;42.20;28.70
7708;DHT22;3896;48.758;8.888;2022-08-03T13:58:58;42.30;28.30
7708;DHT22;3896;48.758;8.888;2022-08-03T14:01:24;42.40;28.20
7708;DHT22;3896;48.758;8.888;2022-08-03T14:03:51;42.50;27.80
7708;DHT22;3896;48.758;8.888;2022-08-03T14:06:21;42.60;27.70
7708;DHT22;3896;48.758;8.888;2022-08-03T14:08:48;42.70;27.40
7708;DHT22;3896;48.758;8.888;2022-08-03T14:11:14;42.90;27.20
7708;DHT22;3896;48.758;8.888;2022-08-03T14:13:40;42.90;27.10
7708;DHT22;3896;48.758;8.888;2022-08-03T14:16:06;43.00;27.30
7708;DHT22;3896;48.758;8.888;2022-08-03T14:18:31;43.10;27.40
7708;DHT22;3896;48.758;8.888;2022-08-03T14:20:58;43.20;27.10
7708;DHT22;3896;48.758;8.888;2022-08-03T14:23:24;43.30;27.00
7708;DHT22;3896;48.758;8.888;2022-08-03T14:25:50;43.40;26.70
7708;DHT22;3896;48.758;8.888;2022-08-03T14:28:16;43.40;26.80
7708;DHT22;3896;48.758;8.888;2022-08-03T14:30:42;43.40;27.30
7708;DHT22;3896;48.758;8.888;2022-08-03T14:33:08;43.40;26.60
7708;DHT22;3896;48.758;8.888;2022-08-03T14:35:33;43.50;26.40
7708;DHT22;3896;48.758;8.888;2022-08-03T14:37:59;43.60;26.30
7708;DHT22;3896;48.758;8.888;2022-08-03T14:40:25;43.60;26.20
7708;DHT22;3896;48.758;8.888;2022-08-03T14:42:50;43.60;26.60
7708;DHT22;3896;48.758;8.888;2022-08-03T14:45:16;43.60;26.30
7708;DHT22;3896;48.758;8.888;2022-08-03T14:47:41;43.70;26.20
7708;DHT22;3896;48.758;8.888;2022-08-03T14:50:08;43.70;26.00
7708;DHT22;3896;48.758;8.888;2022-08-03T14:52:33;43.80;26.10
7708;DHT22;3896;48.758;8.888;2022-08-03T14:54:59;43.80;26.30
7708;DHT22;3896;48.758;8.888;2022-08-03T14:57:26;43.80;26.30
7708;DHT22;3896;48.758;8.888;2022-08-03T14:59:51;43.80;25.90
7708;DHT22;3896;48.758;8.888;2022-08-03T15:02:18;43.90;25.60
7708;DHT22;3896;48.758;8.888;2022-08-03T15:04:43;43.90;26.00
7708;DHT22;3896;48.758;8.888;2022-08-03T15:07:09;43.90;26.00
7708;DHT22;3896;48.758;8.888;2022-08-03T15:09:35;44.00;25.70
7708;DHT22;3896;48.758;8.888;2022-08-03T15:12:01;44.00;25.70
7708;DHT22;3896;48.758;8.888;2022-08-03T15:14:26;44.00;25.90
7708;DHT22;3896;48.758;8.888;2022-08-03T15:16:52;44.00;25.60
7708;DHT22;3896;48.758;8.888;2022-08-03T15:19:17;43.90;25.50
7708;DHT22;3896;48.758;8.888;2022-08-03T15:21:43;43.90;25.90
7708;DHT22;3896;48.758;8.888;2022-08-03T15:24:09;43.90;25.70
7708;DHT22;3896;48.758;8.888;2022-08-03T15:26:34;43.90;25.60
7708;DHT22;3896;48.758;8.888;2022-08-03T15:29:00;43.80;25.50
7708;DHT22;3896;48.758;8.888;2022-08-03T15:31:26;43.80;25.60
7708;DHT22;3896;48.758;8.888;2022-08-03T15:33:51;43.70;25.70
7708;DHT22;3896;48.758;8.888;2022-08-03T15:36:17;43.60;25.80
7708;DHT22;3896;48.758;8.888;2022-08-03T15:38:44;43.70;25.80
7708;DHT22;3896;48.758;8.888;2022-08-03T15:41:11;43.40;25.70
7708;DHT22;3896;48.758;8.888;2022-08-03T15:43:37;43.30;25.80
7708;DHT22;3896;48.758;8.888;2022-08-03T15:46:03;43.10;25.80
7708;DHT22;3896;48.758;8.888;2022-08-03T15:48:29;43.00;26.00
7708;DHT22;3896;48.758;8.888;2022-08-03T15:50:54;42.90;26.00
7708;DHT22;3896;48.758;8.888;2022-08-03T15:53:21;42.70;26.50
7708;DHT22;3896;48.758;8.888;2022-08-03T15:55:46;42.60;26.40
7708;DHT22;3896;48.758;8.888;2022-08-03T15:58:12;42.40;27.00
7708;DHT22;3896;48.758;8.888;2022-08-03T16:00:40;42.20;26.90
7708;DHT22;3896;48.758;8.888;2022-08-03T16:03:06;42.10;27.50
7708;DHT22;3896;48.758;8.888;2022-08-03T16:05:31;41.90;27.10
7708;DHT22;3896;48.758;8.888;2022-08-03T16:07:57;41.70;27.30
7708;DHT22;3896;48.758;8.888;2022-08-03T16:10:23;41.60;27.40
7708;DHT22;3896;48.758;8.888;2022-08-03T16:12:49;41.50;27.40
7708;DHT22;3896;48.758;8.888;2022-08-03T16:15:15;41.40;27.90
7708;DHT22;3896;48.758;8.888;2022-08-03T16:17:41;41.20;27.90
7708;DHT22;3896;48.758;8.888;2022-08-03T16:20:09;41.10;28.10
7708;DHT22;3896;48.758;8.888;2022-08-03T16:22:45;40.90;28.10
7708;DHT22;3896;48.758;8.888;2022-08-03T16:25:13;40.70;28.60
7708;DHT22;3896;48.758;8.888;2022-08-03T16:27:39;40.60;28.90
7708;DHT22;3896;48.758;8.888;2022-08-03T16:30:06;40.50;28.70
7708;DHT22;3896;48.758;8.888;2022-08-03T16:32:32;40.40;28.70
7708;DHT22;3896;48.758;8.888;2022-08-03T16:34:59;40.30;29.00
7708;DHT22;3896;48.758;8.888;2022-08-03T16:37:24;40.20;29.60
7708;DHT22;3896;48.758;8.888;2022-08-03T16:39:50;40.10;30.30
7708;DHT22;3896;48.758;8.888;2022-08-03T16:42:15;39.90;29.90
7708;DHT22;3896;48.758;8.888;2022-08-03T16:44:41;39.80;30.10
7708;DHT22;3896;48.758;8.888;2022-08-03T16:47:07;39.60;30.30
7708;DHT22;3896;48.758;8.888;2022-08-03T16:49:33;39.60;30.30
7708;DHT22;3896;48.758;8.888;2022-08-03T16:51:58;39.50;30.40
7708;DHT22;3896;48.758;8.888;2022-08-03T16:54:24;39.50;30.60
7708;DHT22;3896;48.758;8.888;2022-08-03T16:56:50;39.30;30.80
7708;DHT22;3896;48.758;8.888;2022-08-03T16:59:16;39.20;30.70
7708;DHT22;3896;48.758;8.888;2022-08-03T17:01:43;39.20;30.90